Huldenberg, Belgium
Current Conditions -  °F | °C
As of 2:50 PM on Friday 31 Oct 2014 (Local Time) from EBBR Reporting Station
Clear Clear  
Wind Chill: 64°   Ceiling: Unl
Heat Index: 64°   Visibility: 6mi
Dew Point: 54°   Wind: 6mph
Humidity: 68%   Direction: 180°S
Pressure: 30.15"   Gusts: NA
Location:  50.79°N, 4.58°E
Report Text: EBBR 311350Z 18005KT CAVOK 18/12 Q1021 NOSIG
Loading
Personal Weather Stations






























Interactive Weather Map
Tropical Storm Tracking
New forecast layout! Learn more

10-Day Weather Forecast

Advertisements
Track Severe Weather on mobile